Tyrone, NY

1:44 AM EST on November 27, 2014 (GMT -0500)
Dansville Municipal | Change Station
CLOSE
Current Station
Airport
Location: Dansville,
Elevation: 659 ft
Nearby Weather Stations

Elev 659 ft 42.57 °N, 77.71 °W | Updated 50 minutes ago

Overcast
Overcast
29 °F
Feels Like 21 °F
N
8
Wind Variable Wind from NW

Today
High -- | Low -- °F
--% Chance of Precip.
Yesterday
High -- | Low -- °F
Precip. -- in
7:13 AM 4:38 PM
Waxing Crescent, 26% visible
Pressure 30.07 in
Visibility 9.0 miles
Clouds Overcast 1000 ft
Windchill 21 °F
Dew Point 27 °F
Humidity 92%
Rainfall 0.00 in
Snow Depth Not available.
UV 0 out of 12
Pollen .10 out of 12
Air Quality Not available.
Flu Activity Not available.
METAR KDSV 270554Z AUTO 31007KT 9SM -SN OVC010 M02/M03 A3002 RMK AO2 SLP181 P0000 60000 T10171028 11006 21017 50000

More Conditions Fewer Conditions

Pressure 30.07 in
Visibility 9.0 miles
Clouds Overcast 1000 ft
Windchill 21 °F
Dew Point 27 °F
Humidity 92%
Rainfall 0.00 in
Snow Depth Not available.
UV 0 out of 12
Pollen .10 out of 12
Air Quality Not available.
Flu Activity Not available.
METAR KDSV 270554Z AUTO 31007KT 9SM -SN OVC010 M02/M03 A3002 RMK AO2 SLP181 P0000 60000 T10171028 11006 21017 50000

More Conditions Fewer Conditions

10-Day Weather Forecast

Almanac

Astronomy

Nov. 27, 2014 Rise Set
Actual Time
Civil Twilight
Nautical Twilight
Astronomical Twilight
Moon
Length of Visible Light
Length of Day
Tomorrow will be .
, % of the Moon is Illuminated

Today's Extremes

State Highs State Lows

Community

WunderPhotos

Upload Photos

1,773,962 photos uploaded!

WunderBlogs® & News

Nearby

Air Quality

  Air Quality AQ Index Pollutant
Not available.

Snow Depth

Station Depth Elevation

Earthquake Activity

City Distance Mag. Time & Date
Minimum magnitude displayed is 2.5.

Coastal Water Temperatures

Place Temperature

Nearby Weather Stations